Terminal Aerodrome Forecast
Issued by NWS Chicago, IL

Home | Current Version | Previous Version | Graphics & Text | Print | Product List | Glossary On
Versions: 1 2 3 4 5 6 7 8 9 10 11 12 13 14 15 16 17 18 19 20 21 22 23 24 25 26
000
FTUS43 KLOT 150539
TAFRFD
TAF
KRFD 150539Z 1506/1606 00000KT 6SM BR BKN200
      TEMPO 1508/1512 3SM BR
     FM151300 VRB03KT P6SM BKN200
     FM152000 14004KT P6SM BKN200=

USA.gov is the U.S. government's official web portal to all federal, state and local government web resources and services.